Terminal Aerodrome Forecast
Issued by NWS Albany, NY

Home | Current Version | Previous Version | Text Only | Print | Product List | Glossary On
Versions: 1 2 3 4 5 6 7 8 9 10 11 12 13 14 15 16 17 18 19 20 21 22
000
FTUS41 KALY 221301 AAA
TAFGFL
TAF AMD
KGFL 221301Z 2213/2312 21004KT 5SM BR OVC007
     FM221400 20010KT P6SM SCT050 BKN120
     FM221900 20010G18KT P6SM VCSH SCT025 BKN040 OVC080 PROB30
      2222/2304 2SM TSRA BR SCT008 OVC025CB
     FM230400 21008KT P6SM VCSH BKN025 OVC040
     FM230900 23008KT P6SM SCT025 OVC040=

USA.gov is the U.S. government's official web portal to all federal, state and local government web resources and services.